JST18 VTSP-YMML
Flight info
| Callsign | JST18 |
|---|---|
| Flight time | N/A |
| Altitude | 37000 |
| Route | REBED B579 VPL Y503 ISTEL/N0495F390 Y503 RINBA Y507 MITOS M630 BOBAG P501 ANITO B470 BUNIK T5 HLM A585 SAPDA/N0488F410 G222 METUM DCT 18S120E 20S123E 25S130E DCT CAULI DCT ARENI DCT CARTS DCT NATYA H119 ARBEY |
| Aircraft | B788/H-SDE1E2E3FGHIJ2J3J4J5M1RWXY/LB1D1 |
Departure
| Time | 2026-05-07 16:09 |
|---|---|
| Airport | Phuket International Airport (VTSP) |
Arrival
| Time | N/A |
|---|---|
| Airport | Melbourne Airport (YMML) |
| Time | Latitude | Longitude | Altitude | Speed | Heading |
|---|---|---|---|---|---|
| 2026-05-07 15:25 | 8.10520 | 98.30431 | 50 ft | 0 kts | 104° |
| 2026-05-07 15:25 | 8.10520 | 98.30430 | 91 ft | 0 kts | 104° |
| 2026-05-07 15:55 | 8.10521 | 98.30427 | 91 ft | 3 kts | 104° |
| 2026-05-07 15:55 | 8.10525 | 98.30401 | 88 ft | 4 kts | 89° |
| 2026-05-07 15:56 | 8.10522 | 98.30374 | 88 ft | 4 kts | 70° |
| 2026-05-07 15:56 | 8.10509 | 98.30352 | 89 ft | 4 kts | 38° |
| 2026-05-07 15:56 | 8.10497 | 98.30345 | 88 ft | 4 kts | 14° |
| 2026-05-07 15:59 | 8.10509 | 98.30348 | 90 ft | 4 kts | 14° |
| 2026-05-07 15:59 | 8.10557 | 98.30361 | 90 ft | 10 kts | 15° |
| 2026-05-07 15:59 | 8.10640 | 98.30383 | 91 ft | 15 kts | 15° |
| 2026-05-07 15:59 | 8.10757 | 98.30415 | 90 ft | 20 kts | 15° |
| 2026-05-07 16:00 | 8.10894 | 98.30451 | 89 ft | 20 kts | 14° |
| 2026-05-07 16:00 | 8.11024 | 98.30490 | 91 ft | 18 kts | 32° |
| 2026-05-07 16:00 | 8.11059 | 98.30600 | 91 ft | 16 kts | 85° |
| 2026-05-07 16:00 | 8.11069 | 98.30712 | 89 ft | 16 kts | 84° |
| 2026-05-07 16:01 | 8.11080 | 98.30823 | 87 ft | 16 kts | 84° |
| 2026-05-07 16:01 | 8.11098 | 98.30931 | 93 ft | 15 kts | 70° |
| 2026-05-07 16:01 | 8.11128 | 98.31031 | 91 ft | 15 kts | 82° |
| 2026-05-07 16:01 | 8.11137 | 98.31135 | 90 ft | 15 kts | 84° |
| 2026-05-07 16:02 | 8.11147 | 98.31239 | 92 ft | 15 kts | 84° |
| 2026-05-07 16:02 | 8.11158 | 98.31349 | 89 ft | 16 kts | 84° |
| 2026-05-07 16:02 | 8.11169 | 98.31464 | 90 ft | 17 kts | 84° |
| 2026-05-07 16:02 | 8.11181 | 98.31584 | 92 ft | 18 kts | 84° |
| 2026-05-07 16:03 | 8.11192 | 98.31707 | 90 ft | 18 kts | 84° |
| 2026-05-07 16:03 | 8.11203 | 98.31835 | 92 ft | 18 kts | 85° |
| 2026-05-07 16:03 | 8.11215 | 98.31965 | 92 ft | 19 kts | 84° |
| 2026-05-07 16:03 | 8.11228 | 98.32101 | 88 ft | 20 kts | 84° |
| 2026-05-07 16:04 | 8.11242 | 98.32240 | 88 ft | 20 kts | 84° |
| 2026-05-07 16:04 | 8.11255 | 98.32381 | 90 ft | 20 kts | 84° |
| 2026-05-07 16:04 | 8.11268 | 98.32525 | 89 ft | 20 kts | 85° |
| 2026-05-07 16:04 | 8.11281 | 98.32597 | 91 ft | 1 kts | 64° |
| 2026-05-07 16:05 | 8.11290 | 98.32613 | 92 ft | 1 kts | 53° |
| 2026-05-07 16:05 | 8.11294 | 98.32616 | 92 ft | 0 kts | 49° |
| 2026-05-07 16:06 | 8.11297 | 98.32618 | 92 ft | 2 kts | 42° |
| 2026-05-07 16:06 | 8.11357 | 98.32631 | 94 ft | 15 kts | 2° |
| 2026-05-07 16:06 | 8.11416 | 98.32694 | 94 ft | 13 kts | 74° |
| 2026-05-07 16:07 | 8.11432 | 98.32787 | 91 ft | 14 kts | 82° |
| 2026-05-07 16:07 | 8.11446 | 98.32887 | 91 ft | 14 kts | 77° |
| 2026-05-07 16:07 | 8.11490 | 98.32967 | 95 ft | 13 kts | 65° |
| 2026-05-07 16:07 | 8.11478 | 98.33000 | 95 ft | 2 kts | 152° |
| 2026-05-07 16:08 | 8.11457 | 98.32983 | 94 ft | 7 kts | 231° |
| 2026-05-07 16:08 | 8.11430 | 98.32808 | 91 ft | 55 kts | 265° |
| 2026-05-07 16:08 | 8.11372 | 98.32183 | 92 ft | 124 kts | 264° |
| 2026-05-07 16:08 | 8.11270 | 98.31100 | 108 ft | 183 kts | 264° |
| 2026-05-07 16:09 | 8.11125 | 98.29831 | 915 ft | 180 kts | 260° |
| 2026-05-07 16:09 | 8.10987 | 98.28549 | 1755 ft | 187 kts | 266° |
| 2026-05-07 16:09 | 8.10887 | 98.27140 | 2259 ft | 212 kts | 265° |
| 2026-05-07 16:09 | 8.10686 | 98.25578 | 2612 ft | 242 kts | 256° |
| 2026-05-07 16:10 | 8.09789 | 98.24045 | 2923 ft | 273 kts | 217° |
| 2026-05-07 16:10 | 8.08056 | 98.23419 | 4133 ft | 260 kts | 184° |
| 2026-05-07 16:10 | 8.06234 | 98.23384 | 5105 ft | 268 kts | 176° |
| 2026-05-07 16:10 | 8.04357 | 98.23520 | 6155 ft | 271 kts | 175° |
| 2026-05-07 16:11 | 8.02448 | 98.23621 | 7084 ft | 275 kts | 177° |
| 2026-05-07 16:11 | 8.00534 | 98.23668 | 7990 ft | 280 kts | 178° |
| 2026-05-07 16:11 | 7.98564 | 98.23717 | 8904 ft | 284 kts | 177° |
| 2026-05-07 16:11 | 7.96565 | 98.23784 | 9819 ft | 288 kts | 176° |
| 2026-05-07 16:12 | 7.94533 | 98.23854 | 10399 ft | 304 kts | 176° |
| 2026-05-07 16:12 | 7.92337 | 98.23929 | 10601 ft | 331 kts | 175° |
| 2026-05-07 16:12 | 7.90041 | 98.24491 | 11100 ft | 341 kts | 153° |
| 2026-05-07 16:12 | 7.88130 | 98.25856 | 11915 ft | 342 kts | 131° |
| 2026-05-07 16:13 | 7.86861 | 98.27889 | 12675 ft | 346 kts | 114° |
| 2026-05-07 16:13 | 7.85898 | 98.30145 | 13460 ft | 350 kts | 111° |
| 2026-05-07 16:13 | 7.85003 | 98.32408 | 14203 ft | 354 kts | 111° |
| 2026-05-07 16:13 | 7.84067 | 98.34734 | 14924 ft | 358 kts | 112° |
| 2026-05-07 16:14 | 7.83089 | 98.37083 | 15645 ft | 363 kts | 112° |
| 2026-05-07 16:14 | 7.82114 | 98.39428 | 16307 ft | 367 kts | 112° |
| 2026-05-07 16:14 | 7.81130 | 98.41824 | 16993 ft | 371 kts | 112° |
| 2026-05-07 16:14 | 7.80149 | 98.44220 | 17626 ft | 375 kts | 112° |
| 2026-05-07 16:15 | 7.79139 | 98.46672 | 18246 ft | 379 kts | 112° |
| 2026-05-07 16:15 | 7.78118 | 98.49145 | 18822 ft | 382 kts | 112° |
| 2026-05-07 16:15 | 7.77103 | 98.51609 | 19405 ft | 385 kts | 112° |
| 2026-05-07 16:15 | 7.76070 | 98.54118 | 19972 ft | 388 kts | 112° |
| 2026-05-07 16:16 | 7.75030 | 98.56642 | 20540 ft | 391 kts | 112° |
| 2026-05-07 16:16 | 7.73981 | 98.59186 | 21092 ft | 394 kts | 112° |
| 2026-05-07 16:16 | 7.72791 | 98.61700 | 21615 ft | 398 kts | 122° |
| 2026-05-07 16:16 | 7.71051 | 98.63843 | 22114 ft | 402 kts | 136° |
| 2026-05-07 16:17 | 7.68903 | 98.65685 | 22591 ft | 406 kts | 139° |
| 2026-05-07 16:17 | 7.66695 | 98.67500 | 23104 ft | 409 kts | 140° |
| 2026-05-07 16:17 | 7.64487 | 98.69291 | 23557 ft | 412 kts | 140° |
| 2026-05-07 16:17 | 7.62247 | 98.71130 | 23950 ft | 415 kts | 139° |
| 2026-05-07 16:18 | 7.60005 | 98.72984 | 24342 ft | 418 kts | 139° |
| 2026-05-07 16:18 | 7.57773 | 98.74822 | 24716 ft | 420 kts | 140° |
| 2026-05-07 16:18 | 7.55493 | 98.76691 | 25084 ft | 423 kts | 140° |
| 2026-05-07 16:18 | 7.53198 | 98.78575 | 25474 ft | 426 kts | 140° |
| 2026-05-07 16:19 | 7.50890 | 98.80473 | 25860 ft | 428 kts | 140° |
| 2026-05-07 16:19 | 7.48576 | 98.82376 | 26244 ft | 431 kts | 140° |
| 2026-05-07 16:19 | 7.46242 | 98.84292 | 26599 ft | 434 kts | 140° |
| 2026-05-07 16:19 | 7.43893 | 98.86218 | 26967 ft | 437 kts | 140° |
| 2026-05-07 16:20 | 7.41530 | 98.88155 | 27320 ft | 439 kts | 140° |
| 2026-05-07 16:20 | 7.39171 | 98.90090 | 27690 ft | 442 kts | 140° |
| 2026-05-07 16:20 | 7.36781 | 98.92050 | 28045 ft | 444 kts | 140° |
| 2026-05-07 16:20 | 7.34374 | 98.94023 | 28398 ft | 447 kts | 140° |